Ride Results

National Capital Brookvale Ride (12-10-2019)
Ride distance: 80.0 km

Outcomes - National Capital Brookvale Ride (12-10-2019)
Division No. of Entries Retired / DNE Completed Withdrawn Ineligible V/O Percentage Completed
HW 4 - 3 - - 1 75.00%
MW 9 - 5 1 - 3 55.56%
LW 14 - 12 - - 2 85.71%
JN 4 - 3 - - 1 75.00%
Totals 31 - 23 1 - 7 74.19%
Results - National Capital Brookvale Ride (12-10-2019)
No. Rider Horse Place Time Leg Speeds Total
Km/Hr
H/R bpm
Heavyweight
20 Gavin Peacock Chop Chop 1 7:12:00 11.8, 10.4 11.11 34, 42, 56 (Avg:49)
17 Heidi Wade Poesie De Fadjurs Legacy 2 (BC) 7:55:00 10.8, 9.4 10.11 34, 36, 40 (Avg:38)
30 Sarah Pollard-Williams Jive 3 8:51:00 9.7, 8.4 9.04 48, 50, 58 (Avg:54)
19 Brian Swan Kybeyan Green Failure to lead L2 0:00:00 10.9, 9.3 - 55, 45, 60 (Avg:52)
Middleweight
11 Ian Curtis Blake's Heaven Carousel 1 6:45:00 13.1, 10.7 11.85 43, 46, 52 (Avg:49)
15 Rodney Curry Cooroora Allyjah 2 (BC) 6:49:00 11.8, 11.5 11.74 40, 40, 42 (Avg:41)
12 Monica Majerowski Halimas Valentine 2 6:49:00 13.1, 10.5 11.74 36, 46, 57 (Avg:51)
23 Ben Hudson Oso Dorothy 4 8:10:00 9.4, 10.1 9.80 34, 40, 46 (Avg:43)
26 Kayte Barnard Sandine Bugatti 5 8:37:00 9.7, 8.8 9.28 42, 50, 57 (Avg:53)
21 Jesse Buchan Contessa Lame L2 0:00:00 11.8, 10.5 - 42, 45, 51 (Avg:48)
4 John Symons Ruby Rose Lame L2 0:00:00 10.6, 8.2 - 38, 50, 54 (Avg:52)
7 Duncan McLaughlin Splitters Creek Icelandic W/D after vetting L1 0:00:00 - - 35, 48 (Avg:48)
2 Katrina Newitt Wybalena Lodge Prince Harry Lame L1 0:00:00 11.7 - 38, 51 (Avg:51)
Lightweight
14 Marion Grove Diamond R Carbo 1 6:45:00 12.9, 10.9 11.85 32, 43, 52 (Avg:47)
10 Fia Hasko-Stewart Marat MA 1 (BC) 6:45:00 13.1, 10.7 11.85 34, 42, 46 (Avg:44)
22 Talea Hasko-Stewart Blake's Heaven Bombora 3 7:09:00 11.8, 10.5 11.19 33, 44, 52 (Avg:48)
9 Julie Hooper A'Landell Enigma 4 7:35:00 11.2, 9.9 10.55 38, 42, 54 (Avg:48)
29 Faith Robinson Sassy Grace 5 7:57:00 10.9, 9.3 10.06 38, 50, 56 (Avg:53)
25 Sorsha Stuart-Rokvic Oso Desperado 6 8:10:00 9.4, 10.1 9.80 41, 51, 56 (Avg:53)
24 Arabella Ward Cedar Ridge Sentinal 6 8:10:00 9.4, 10.1 9.80 43, 44, 49 (Avg:46)
6 Monica Ballard Birrali Lawrence 8 8:12:00 9.6, 9.8 9.76 36, 42, 48 (Avg:45)
5 Celia Hodgson Blake's Heaven Hiraani 8 8:12:00 9.6, 9.8 9.76 35, 41, 44 (Avg:42)
3 Sue Todd Shakari Bear 10 8:35:00 10.6, 8.2 9.32 34, 44, 48 (Avg:46)
27 Mary Hollingsworth Henley Farm Waffar 11 8:37:00 9.7, 8.8 9.28 36, 45, 51 (Avg:48)
1 Simon Bain Akifa Farras Ice 12 8:49:00 9.7, 8.5 9.07 33, 54, 56 (Avg:55)
28 Kim Gaspari Cooinda Park Willow Heart Rate L2 0:00:00 11.1, 9.1 - 42, 47, 65 (Avg:56)
31 Roz Edmunds Everon Park Apollo Lame L1 0:00:00 11.1 - 36, 40 (Avg:40)
Junior
16 Emma Cole Wyabalena Lodge Aflirt 1 (BC) 6:49:00 11.8, 11.5 11.74 44, 43, 45 (Avg:44)
8 Madison Hooper Hill-Fry Splash of Gold 2 7:35:00 11.2, 9.9 10.55 42, 51, 53 (Avg:52)
18 Tegan Ashby Yinbilliko Shaka Zulu 3 7:55:00 10.8, 9.4 10.11 43, 43, 51 (Avg:47)
13 Jayme Cooper Jupiter Sharara Lame L2 0:00:00 11.1, 10.6 - 36, 42, 59 (Avg:50)